Time;durP1;ratioP1;P1;durP2;ratioP2;P2;SDS_P1;SDS_P2;PMS_P1;PMS_P2;Temp;Humidity;BMP_temperature;BMP_pressure;BME280_temperature;BME280_humidity;BME280_pressure;Samples;Min_cycle;Max_cycle;Signal;HPM_P1;HPM_P2
2022/12/13 00:00:13;;;;;;;;;;;-3.20;99.90;;;;;;5104417;28;21170;-41
2022/12/13 00:02:40;;;;;;;;;;;-3.30;99.90;;;;;;5094065;28;19915;-40
2022/12/13 00:05:06;;;;;;;;;;;-3.30;99.90;;;;;;5110287;28;19919;-39
2022/12/13 00:07:32;;;;;;;;;;;-3.20;99.90;;;;;;5111683;28;19908;-40
2022/12/13 00:09:58;;;;;;;;;;;-3.30;99.90;;;;;;5113763;28;19915;-40
2022/12/13 00:12:23;;;;;;;;;;;-3.30;99.90;;;;;;5110290;28;21222;-40
2022/12/13 00:14:48;;;;;;;;;;;-3.30;99.90;;;;;;5092535;28;19924;-39
2022/12/13 00:17:14;;;;;;;;;;;-3.30;99.90;;;;;;5093458;28;20367;-41
2022/12/13 00:19:39;;;;;;;;;;;-3.30;99.90;;;;;;5106192;28;19941;-39
2022/12/13 00:22:05;;;;;;;;;;;-3.30;99.90;;;;;;5112855;28;20374;-40
2022/12/13 00:24:30;;;;;;;;;;;-3.30;99.90;;;;;;5110004;28;19951;-40
2022/12/13 00:26:56;;;;;;;;;;;-3.20;99.90;;;;;;5113815;28;20333;-40
2022/12/13 00:29:21;;;;;;;;;;;-3.20;99.90;;;;;;5112230;28;19911;-39
2022/12/13 00:31:47;;;;;;;;;;;-3.20;99.90;;;;;;5113536;28;19919;-39
2022/12/13 00:34:12;;;;;;;;;;;-3.20;99.90;;;;;;5113086;28;19918;-39
2022/12/13 00:36:38;;;;;;;;;;;-3.20;99.90;;;;;;5112639;28;20267;-41
2022/12/13 00:39:04;;;;;;;;;;;-3.10;99.90;;;;;;5112126;28;20010;-40
2022/12/13 00:41:30;;;;;;;;;;;-3.10;99.90;;;;;;5099482;28;20441;-41
2022/12/13 00:43:56;;;;;;;;;;;-3.20;99.90;;;;;;5107282;28;19946;-40
2022/12/13 00:46:22;;;;;;;;;;;-3.20;99.90;;;;;;5106526;28;19912;-41
2022/12/13 00:48:48;;;;;;;;;;;-3.20;99.90;;;;;;5092640;28;19918;-39
2022/12/13 00:51:14;;;;;;;;;;;-3.20;99.90;;;;;;5092668;28;19927;-39
2022/12/13 00:53:39;;;;;;;;;;;-3.20;99.90;;;;;;5097741;28;19912;-40
2022/12/13 00:56:09;;;;;;;;;;;-3.20;99.90;;;;;;5112744;28;20311;-40
2022/12/13 00:58:34;;;;;;;;;;;-3.20;99.90;;;;;;5100636;28;20367;-39
2022/12/13 01:01:04;;;;;;;;;;;-3.20;99.90;;;;;;5109015;28;20030;-40
2022/12/13 01:03:29;;;;;;;;;;;-3.20;99.90;;;;;;5092185;28;19923;-40
2022/12/13 01:05:55;;;;;;;;;;;-3.20;99.90;;;;;;5092568;28;19916;-40
2022/12/13 01:08:20;;;;;;;;;;;-3.10;99.90;;;;;;5092859;28;19920;-40
2022/12/13 01:10:46;;;;;;;;;;;-3.10;99.90;;;;;;5092119;28;19955;-40
2022/12/13 01:13:12;;;;;;;;;;;-3.10;99.90;;;;;;5104100;28;20578;-39
2022/12/13 01:15:41;;;;;;;;;;;-3.10;99.90;;;;;;5104044;28;19966;-39
2022/12/13 01:18:06;;;;;;;;;;;-3.20;99.90;;;;;;5112031;28;19908;-40
2022/12/13 01:20:32;;;;;;;;;;;-3.20;99.90;;;;;;5113158;28;19912;-40
2022/12/13 01:22:57;;;;;;;;;;;-3.30;99.90;;;;;;5112771;28;19912;-39
2022/12/13 01:25:23;;;;;;;;;;;-3.30;99.90;;;;;;5112155;28;19923;-39
2022/12/13 01:27:48;;;;;;;;;;;-3.30;99.90;;;;;;5113119;28;20378;-40
2022/12/13 01:30:14;;;;;;;;;;;-3.30;99.90;;;;;;5112694;28;19911;-39
2022/12/13 01:32:39;;;;;;;;;;;-3.30;99.90;;;;;;5112244;28;19919;-40
2022/12/13 01:35:05;;;;;;;;;;;-3.30;99.90;;;;;;5111983;28;19912;-40
2022/12/13 01:37:30;;;;;;;;;;;-3.30;99.90;;;;;;5108490;28;19919;-41
2022/12/13 01:39:55;;;;;;;;;;;-3.30;99.90;;;;;;5091754;28;20327;-39
2022/12/13 01:42:21;;;;;;;;;;;-3.30;99.90;;;;;;5099738;28;19912;-40
2022/12/13 01:44:52;;;;;;;;;;;-3.30;99.90;;;;;;5112541;28;19927;-40
2022/12/13 01:47:27;;;;;;;;;;;-3.30;99.90;;;;;;5099967;28;19912;-39
2022/12/13 01:49:54;;;;;;;;;;;-3.30;99.90;;;;;;5092358;28;20010;-40
2022/12/13 01:52:20;;;;;;;;;;;-3.30;99.90;;;;;;5092211;28;19920;-39
2022/12/13 01:54:47;;;;;;;;;;;-3.30;99.90;;;;;;5097436;28;19912;-40
2022/12/13 01:57:14;;;;;;;;;;;-3.30;99.90;;;;;;5096325;28;19908;-39
2022/12/13 01:59:40;;;;;;;;;;;-3.20;99.90;;;;;;5100984;28;19915;-40
2022/12/13 02:02:06;;;;;;;;;;;-3.20;99.90;;;;;;5116422;28;19912;-41
2022/12/13 02:04:51;;;;;;;;;;;-3.20;99.90;;;;;;5102998;28;19912;-41
2022/12/13 02:07:18;;;;;;;;;;;-3.20;99.90;;;;;;5096305;28;19912;-40
2022/12/13 02:09:43;;;;;;;;;;;-3.20;99.90;;;;;;5111481;28;19912;-40
2022/12/13 02:12:10;;;;;;;;;;;-3.30;99.90;;;;;;5095757;28;19928;-40
2022/12/13 02:14:36;;;;;;;;;;;-3.30;99.90;;;;;;5112570;28;19919;-41
2022/12/13 02:17:09;;;;;;;;;;;-3.30;99.90;;;;;;5111303;28;19912;-39
2022/12/13 02:19:53;;;;;;;;;;;-3.40;99.90;;;;;;5095993;28;20002;-40
2022/12/13 02:22:21;;;;;;;;;;;-3.40;99.90;;;;;;5095173;28;20388;-40
2022/12/13 02:25:03;;;;;;;;;;;-3.50;99.90;;;;;;5095866;28;20372;-39
2022/12/13 02:27:47;;;;;;;;;;;-3.50;99.90;;;;;;5095202;28;20029;-40
2022/12/13 02:30:15;;;;;;;;;;;-3.60;99.90;;;;;;5095689;28;20325;-40
2022/12/13 02:32:55;;;;;;;;;;;-3.60;99.90;;;;;;5095676;28;20363;-40
2022/12/13 02:35:23;;;;;;;;;;;-3.60;99.90;;;;;;5095356;28;19964;-41
2022/12/13 02:37:52;;;;;;;;;;;-3.60;99.90;;;;;;5102302;28;19919;-41
2022/12/13 02:40:22;;;;;;;;;;;-3.60;99.90;;;;;;5096448;28;20275;-39
2022/12/13 02:43:10;;;;;;;;;;;-3.50;99.90;;;;;;5094824;28;19908;-39
2022/12/13 02:45:52;;;;;;;;;;;-3.50;99.90;;;;;;5095630;28;19912;-40
2022/12/13 02:48:22;;;;;;;;;;;-3.50;99.90;;;;;;5097308;28;19912;-40
2022/12/13 02:50:50;;;;;;;;;;;-3.50;99.90;;;;;;5115371;28;20006;-40
2022/12/13 02:53:16;;;;;;;;;;;-3.50;99.90;;;;;;5112370;28;19973;-41
2022/12/13 02:55:41;;;;;;;;;;;-3.60;99.90;;;;;;5094524;28;19923;-40
2022/12/13 02:58:10;;;;;;;;;;;-3.60;99.90;;;;;;5095143;28;19908;-40
2022/12/13 03:00:41;;;;;;;;;;;-3.60;99.90;;;;;;5095211;28;19912;-39
2022/12/13 03:03:07;;;;;;;;;;;-3.60;99.90;;;;;;5094342;28;19915;-40
2022/12/13 03:08:42;;;;;;;;;;;-3.70;99.90;;;;;;5111183;28;19970;-40
2022/12/13 03:11:13;;;;;;;;;;;-3.70;99.90;;;;;;5093544;28;19908;-40
2022/12/13 03:14:11;;;;;;;;;;;-3.70;99.90;;;;;;5094649;28;19927;-39
2022/12/13 03:16:41;;;;;;;;;;;-3.80;99.90;;;;;;5048987;28;19908;-39
2022/12/13 03:19:09;;;;;;;;;;;-3.70;99.90;;;;;;5105388;28;21561;-40
2022/12/13 03:21:44;;;;;;;;;;;-3.70;99.90;;;;;;5115378;28;19908;-40
2022/12/13 03:24:09;;;;;;;;;;;-3.70;99.90;;;;;;5103473;28;20421;-39
2022/12/13 03:26:36;;;;;;;;;;;-3.60;99.90;;;;;;5094732;28;19912;-41
2022/12/13 03:29:01;;;;;;;;;;;-3.70;99.90;;;;;;5094664;28;19918;-40
2022/12/13 03:31:27;;;;;;;;;;;-3.70;99.90;;;;;;5093826;28;19912;-39
2022/12/13 03:33:52;;;;;;;;;;;-3.70;99.90;;;;;;5094583;28;19927;-39
2022/12/13 03:36:18;;;;;;;;;;;-3.80;99.90;;;;;;5094239;28;19912;-39
2022/12/13 03:38:44;;;;;;;;;;;-3.80;99.90;;;;;;5098820;28;19919;-41
2022/12/13 03:41:12;;;;;;;;;;;-3.80;99.90;;;;;;5114929;28;19916;-40
2022/12/13 03:43:39;;;;;;;;;;;-3.80;99.90;;;;;;5114361;28;20263;-41
2022/12/13 03:46:05;;;;;;;;;;;-3.80;99.90;;;;;;5113992;28;19907;-41
2022/12/13 03:48:30;;;;;;;;;;;-3.80;99.90;;;;;;5112770;28;20400;-39
2022/12/13 03:50:56;;;;;;;;;;;-3.90;99.90;;;;;;5094036;28;19912;-40
2022/12/13 03:53:22;;;;;;;;;;;-3.90;99.90;;;;;;5095020;28;19924;-41
2022/12/13 03:55:47;;;;;;;;;;;-3.80;99.90;;;;;;5112515;28;19912;-40
2022/12/13 03:58:13;;;;;;;;;;;-3.80;99.90;;;;;;5114255;28;20043;-40
2022/12/13 04:00:38;;;;;;;;;;;-3.80;99.90;;;;;;5099273;28;20347;-40
2022/12/13 04:03:04;;;;;;;;;;;-3.80;99.90;;;;;;5111119;28;20328;-41
2022/12/13 04:05:29;;;;;;;;;;;-3.80;99.90;;;;;;5109104;28;19960;-40
2022/12/13 04:07:55;;;;;;;;;;;-3.80;99.90;;;;;;5093176;28;19943;-40
2022/12/13 04:10:21;;;;;;;;;;;-3.90;99.90;;;;;;5112697;28;20354;-41
2022/12/13 04:15:30;;;;;;;;;;;-4.00;99.90;;;;;;5114356;28;19960;-40
2022/12/13 04:17:55;;;;;;;;;;;-4.00;99.90;;;;;;5113764;28;19907;-41
2022/12/13 04:20:21;;;;;;;;;;;-4.00;99.90;;;;;;5108373;28;19955;-41
2022/12/13 04:22:46;;;;;;;;;;;-4.00;99.90;;;;;;5093228;28;19908;-42
2022/12/13 04:25:12;;;;;;;;;;;-4.00;99.90;;;;;;5113380;28;19947;-40
2022/12/13 04:27:37;;;;;;;;;;;-4.00;99.90;;;;;;5112950;28;19994;-39
2022/12/13 04:30:04;;;;;;;;;;;-4.00;99.90;;;;;;5113330;28;20347;-40
2022/12/13 04:32:29;;;;;;;;;;;-4.00;99.90;;;;;;5113669;28;19916;-39
2022/12/13 04:34:55;;;;;;;;;;;-4.00;99.90;;;;;;5112632;28;19935;-41
2022/12/13 04:37:20;;;;;;;;;;;-4.00;99.90;;;;;;5113599;28;19994;-39
2022/12/13 04:39:45;;;;;;;;;;;-4.10;99.90;;;;;;5101742;28;20294;-43
2022/12/13 04:42:11;;;;;;;;;;;-4.10;99.90;;;;;;5092648;28;19938;-41
2022/12/13 04:44:37;;;;;;;;;;;-4.10;99.90;;;;;;5093295;28;19908;-40
2022/12/13 04:47:02;;;;;;;;;;;-4.10;99.90;;;;;;5093268;28;20367;-40
2022/12/13 04:49:28;;;;;;;;;;;-4.20;99.90;;;;;;5102178;28;20381;-41
2022/12/13 04:51:54;;;;;;;;;;;-4.10;99.90;;;;;;5103670;28;19927;-41
2022/12/13 04:54:19;;;;;;;;;;;-4.10;99.90;;;;;;5094265;28;19912;-40
2022/12/13 04:56:45;;;;;;;;;;;-4.10;99.90;;;;;;5095523;28;20386;-39
2022/12/13 04:59:10;;;;;;;;;;;-4.10;99.90;;;;;;5113133;28;19999;-41
2022/12/13 05:01:36;;;;;;;;;;;-4.10;99.90;;;;;;5113359;28;19914;-40
2022/12/13 05:04:02;;;;;;;;;;;-4.10;99.90;;;;;;5112169;28;19916;-40
2022/12/13 05:06:28;;;;;;;;;;;-4.10;99.90;;;;;;5113424;28;19908;-39
2022/12/13 05:08:54;;;;;;;;;;;-4.10;99.90;;;;;;5098024;28;19916;-41
2022/12/13 05:11:20;;;;;;;;;;;-4.10;99.90;;;;;;5112260;28;20324;-40
2022/12/13 05:13:45;;;;;;;;;;;-4.10;99.90;;;;;;5112879;28;19912;-40
2022/12/13 05:16:11;;;;;;;;;;;-4.10;99.90;;;;;;5112047;28;19919;-40
2022/12/13 05:18:37;;;;;;;;;;;-4.10;99.90;;;;;;5112834;28;19915;-39
2022/12/13 05:21:07;;;;;;;;;;;-4.10;99.90;;;;;;5113134;28;20282;-40
2022/12/13 05:23:33;;;;;;;;;;;-4.10;99.90;;;;;;5094855;28;19955;-39
2022/12/13 05:25:58;;;;;;;;;;;-4.10;99.90;;;;;;5092734;28;19959;-40
2022/12/13 05:28:26;;;;;;;;;;;-4.10;99.90;;;;;;5092098;28;20355;-40
2022/12/13 05:30:53;;;;;;;;;;;-4.10;99.90;;;;;;5073500;28;20298;-40
2022/12/13 05:33:19;;;;;;;;;;;-4.20;99.90;;;;;;5096297;28;19920;-39
2022/12/13 05:35:44;;;;;;;;;;;-4.20;99.90;;;;;;5100415;28;19912;-42
2022/12/13 05:38:10;;;;;;;;;;;-4.20;99.90;;;;;;5102360;28;19915;-40
2022/12/13 05:40:35;;;;;;;;;;;-4.20;99.90;;;;;;5096382;28;19912;-39
2022/12/13 05:43:01;;;;;;;;;;;-4.30;99.90;;;;;;5107343;28;19911;-41
2022/12/13 05:45:26;;;;;;;;;;;-4.30;99.90;;;;;;5113808;28;20320;-39
2022/12/13 05:47:52;;;;;;;;;;;-4.30;99.90;;;;;;5111860;28;19920;-40
2022/12/13 05:50:17;;;;;;;;;;;-4.30;99.90;;;;;;5105989;28;19912;-40
2022/12/13 05:52:43;;;;;;;;;;;-4.30;99.90;;;;;;5108136;28;19968;-40
2022/12/13 05:55:09;;;;;;;;;;;-4.40;99.90;;;;;;5126263;28;19923;-41
2022/12/13 05:57:37;;;;;;;;;;;-4.30;99.90;;;;;;5127345;28;19914;-41
2022/12/13 06:00:03;;;;;;;;;;;-4.40;99.90;;;;;;5132466;28;19915;-41
2022/12/13 06:02:29;;;;;;;;;;;-4.40;99.90;;;;;;5133337;28;19915;-39
2022/12/13 06:04:54;;;;;;;;;;;-4.40;99.90;;;;;;5133060;28;19908;-41
2022/12/13 06:07:20;;;;;;;;;;;-4.40;99.90;;;;;;5132586;28;19912;-41
2022/12/13 06:09:45;;;;;;;;;;;-4.40;99.90;;;;;;5118739;28;19915;-39
2022/12/13 06:12:11;;;;;;;;;;;-4.40;99.90;;;;;;5112243;28;20387;-39
2022/12/13 06:14:36;;;;;;;;;;;-4.40;99.90;;;;;;5105106;28;20300;-41
2022/12/13 06:17:02;;;;;;;;;;;-4.40;99.90;;;;;;5096940;28;19908;-39
2022/12/13 06:19:28;;;;;;;;;;;-4.40;99.90;;;;;;5091556;28;20402;-39
2022/12/13 06:21:54;;;;;;;;;;;-4.40;99.90;;;;;;5092116;28;20374;-40
2022/12/13 06:24:20;;;;;;;;;;;-4.40;99.90;;;;;;5092252;28;19999;-40
2022/12/13 06:26:46;;;;;;;;;;;-4.40;99.90;;;;;;5091472;28;20001;-40
2022/12/13 06:29:15;;;;;;;;;;;-4.30;99.90;;;;;;5091987;28;19908;-39
2022/12/13 06:31:41;;;;;;;;;;;-4.20;99.90;;;;;;5100425;28;19920;-40
2022/12/13 06:34:06;;;;;;;;;;;-4.20;99.90;;;;;;5111387;28;19908;-39
2022/12/13 06:36:32;;;;;;;;;;;-4.20;99.90;;;;;;5112559;28;19914;-40
2022/12/13 06:39:01;;;;;;;;;;;-4.10;99.90;;;;;;5112335;28;19915;-41
2022/12/13 06:41:26;;;;;;;;;;;-4.10;99.90;;;;;;5115502;28;19918;-40
2022/12/13 06:43:52;;;;;;;;;;;-4.20;99.90;;;;;;5115814;28;19908;-40
2022/12/13 06:46:17;;;;;;;;;;;-4.20;99.90;;;;;;5130532;27;19908;-41
2022/12/13 06:48:43;;;;;;;;;;;-4.20;99.90;;;;;;5135869;27;19930;-41
2022/12/13 06:51:09;;;;;;;;;;;-4.20;99.90;;;;;;5136014;27;19912;-42
2022/12/13 06:53:36;;;;;;;;;;;-4.10;99.90;;;;;;5136492;27;19912;-41
2022/12/13 06:56:06;;;;;;;;;;;-4.10;99.90;;;;;;5135404;27;19953;-39
2022/12/13 06:58:32;;;;;;;;;;;-4.00;99.90;;;;;;5136350;27;20289;-41
2022/12/13 07:01:24;;;;;;;;;;;-4.00;99.90;;;;;;5136001;27;20327;-41
2022/12/13 07:03:49;;;;;;;;;;;-4.00;99.90;;;;;;5130374;27;19915;-42
2022/12/13 07:06:16;;;;;;;;;;;-3.90;99.90;;;;;;5135820;27;19911;-41
2022/12/13 07:08:42;;;;;;;;;;;-3.90;99.90;;;;;;5135447;27;19912;-39
2022/12/13 07:11:12;;;;;;;;;;;-3.90;99.90;;;;;;5136012;27;19907;-40
2022/12/13 07:13:38;;;;;;;;;;;-3.90;99.90;;;;;;5135725;27;19919;-42
2022/12/13 07:16:03;;;;;;;;;;;-3.90;99.90;;;;;;5135063;27;19908;-41
2022/12/13 07:18:29;;;;;;;;;;;-3.80;99.90;;;;;;5128160;27;19912;-41
2022/12/13 07:20:54;;;;;;;;;;;-3.80;99.90;;;;;;5106182;28;19989;-42
2022/12/13 07:23:20;;;;;;;;;;;-3.80;99.90;;;;;;5094155;28;19908;-41
2022/12/13 07:25:54;;;;;;;;;;;-3.80;99.90;;;;;;5097163;28;20263;-41
2022/12/13 07:28:20;;;;;;;;;;;-3.70;99.90;;;;;;5105996;28;19943;-42
2022/12/13 07:30:46;;;;;;;;;;;-3.70;99.90;;;;;;5093895;28;20453;-42
2022/12/13 07:33:12;;;;;;;;;;;-3.70;99.90;;;;;;5094444;28;20031;-41
2022/12/13 07:35:38;;;;;;;;;;;-3.70;99.90;;;;;;5094442;28;19914;-40
2022/12/13 07:38:04;;;;;;;;;;;-3.70;99.90;;;;;;5101424;28;19918;-41
2022/12/13 07:40:29;;;;;;;;;;;-3.70;99.90;;;;;;5095606;28;19912;-42
2022/12/13 07:42:55;;;;;;;;;;;-3.70;99.90;;;;;;5104134;28;19914;-40
2022/12/13 07:45:21;;;;;;;;;;;-3.60;99.90;;;;;;5106627;27;19907;-41
2022/12/13 07:47:47;;;;;;;;;;;-3.60;99.90;;;;;;5116504;27;19965;-42
2022/12/13 07:50:13;;;;;;;;;;;-3.60;99.90;;;;;;5099646;28;19912;-41
2022/12/13 07:52:38;;;;;;;;;;;-3.50;99.90;;;;;;5093520;28;19916;-40
2022/12/13 07:55:05;;;;;;;;;;;-3.50;99.90;;;;;;5093882;28;20415;-40
2022/12/13 07:57:30;;;;;;;;;;;-3.50;99.90;;;;;;5094295;28;19912;-42
2022/12/13 07:59:55;;;;;;;;;;;-3.40;99.90;;;;;;5093326;28;19908;-40
2022/12/13 08:02:21;;;;;;;;;;;-3.40;99.90;;;;;;5094029;28;19916;-42
2022/12/13 08:04:46;;;;;;;;;;;-3.30;99.90;;;;;;5093636;28;19916;-41
2022/12/13 08:07:12;;;;;;;;;;;-3.30;99.90;;;;;;5093247;28;19916;-40
2022/12/13 08:09:38;;;;;;;;;;;-3.30;99.90;;;;;;5094238;28;19915;-40
2022/12/13 08:12:04;;;;;;;;;;;-3.30;99.90;;;;;;5092858;28;19923;-41
2022/12/13 08:14:30;;;;;;;;;;;-3.20;99.90;;;;;;5093860;28;19908;-42
2022/12/13 08:16:55;;;;;;;;;;;-3.20;99.90;;;;;;5099391;28;20328;-41
2022/12/13 08:19:21;;;;;;;;;;;-3.20;99.90;;;;;;5099895;27;19920;-40
2022/12/13 08:21:46;;;;;;;;;;;-3.20;99.90;;;;;;5102543;28;19908;-42
2022/12/13 08:24:12;;;;;;;;;;;-3.20;99.90;;;;;;5095282;28;19919;-40
2022/12/13 08:26:37;;;;;;;;;;;-3.20;99.90;;;;;;5098743;28;19961;-40
2022/12/13 08:29:03;;;;;;;;;;;-3.20;99.90;;;;;;5106274;28;19912;-42
2022/12/13 08:31:29;;;;;;;;;;;-3.30;99.90;;;;;;5112907;28;19908;-40
2022/12/13 08:33:55;;;;;;;;;;;-3.20;99.90;;;;;;5111901;28;19908;-41
2022/12/13 08:36:23;;;;;;;;;;;-3.30;99.90;;;;;;5112494;28;20377;-41
2022/12/13 08:38:49;;;;;;;;;;;-3.30;99.90;;;;;;5113930;28;20304;-41
2022/12/13 08:41:14;;;;;;;;;;;-3.20;99.90;;;;;;5113012;28;19907;-40
2022/12/13 08:43:40;;;;;;;;;;;-3.20;99.90;;;;;;5113863;28;20366;-42
2022/12/13 08:46:06;;;;;;;;;;;-3.20;99.90;;;;;;5113553;28;20362;-40
2022/12/13 08:48:31;;;;;;;;;;;-3.20;99.90;;;;;;5096272;28;19912;-40
2022/12/13 08:51:05;;;;;;;;;;;-3.20;99.90;;;;;;5093082;28;20378;-40
2022/12/13 08:53:30;;;;;;;;;;;-3.20;99.90;;;;;;5093194;28;20340;-40
2022/12/13 08:56:03;;;;;;;;;;;-3.20;99.90;;;;;;5093466;28;20001;-40
2022/12/13 08:58:29;;;;;;;;;;;-3.20;99.90;;;;;;5093239;28;19955;-42
2022/12/13 09:00:54;;;;;;;;;;;-3.10;99.90;;;;;;5093055;28;19944;-42
2022/12/13 09:03:20;;;;;;;;;;;-3.10;99.90;;;;;;5091531;28;19915;-40
2022/12/13 09:05:45;;;;;;;;;;;-3.10;99.90;;;;;;5092741;28;19908;-40
2022/12/13 09:08:11;;;;;;;;;;;-3.00;99.90;;;;;;5092432;28;19954;-42
2022/12/13 09:10:37;;;;;;;;;;;-3.00;99.90;;;;;;5093115;28;19914;-41
2022/12/13 09:13:03;;;;;;;;;;;-3.00;99.90;;;;;;5078015;28;19973;-41
2022/12/13 09:15:30;;;;;;;;;;;-2.90;99.90;;;;;;5071875;28;19908;-40
2022/12/13 09:17:55;;;;;;;;;;;-2.90;99.90;;;;;;5072573;28;20462;-40
2022/12/13 09:20:21;;;;;;;;;;;-2.80;99.90;;;;;;5072563;28;19912;-41
2022/12/13 09:22:46;;;;;;;;;;;-2.80;99.90;;;;;;5072041;28;19912;-41
2022/12/13 09:25:12;;;;;;;;;;;-2.70;99.90;;;;;;5072511;28;20007;-40
2022/12/13 09:27:37;;;;;;;;;;;-2.70;99.90;;;;;;5073672;28;19913;-41
2022/12/13 09:30:03;;;;;;;;;;;-2.70;99.90;;;;;;5071673;28;19916;-41
2022/12/13 09:32:29;;;;;;;;;;;-2.60;99.90;;;;;;5072621;28;19916;-40
2022/12/13 09:34:55;;;;;;;;;;;-2.60;99.90;;;;;;5072256;28;19955;-39
2022/12/13 09:37:20;;;;;;;;;;;-2.50;99.90;;;;;;5071749;28;19956;-40
2022/12/13 09:39:46;;;;;;;;;;;-2.50;99.90;;;;;;5072422;28;19916;-42
2022/12/13 09:42:17;;;;;;;;;;;-2.40;99.90;;;;;;5072529;28;19909;-42
2022/12/13 09:44:48;;;;;;;;;;;-2.30;99.90;;;;;;5071618;28;19955;-42
2022/12/13 09:47:19;;;;;;;;;;;-2.30;99.90;;;;;;5072327;28;19909;-40
2022/12/13 09:49:44;;;;;;;;;;;-2.20;99.90;;;;;;5072474;28;19970;-40
2022/12/13 09:52:12;;;;;;;;;;;-2.10;99.90;;;;;;5071401;28;20480;-43
2022/12/13 09:54:38;;;;;;;;;;;-2.00;99.90;;;;;;5072439;28;19908;-40
2022/12/13 09:57:09;;;;;;;;;;;-1.90;99.90;;;;;;5087290;28;19915;-41
2022/12/13 09:59:34;;;;;;;;;;;-1.90;99.90;;;;;;5091754;28;19912;-40
2022/12/13 10:02:26;;;;;;;;;;;-1.80;99.90;;;;;;5092447;28;19918;-40
2022/12/13 10:04:52;;;;;;;;;;;-1.70;99.90;;;;;;5086856;28;19908;-41
2022/12/13 10:07:22;;;;;;;;;;;-1.60;99.90;;;;;;5092359;28;20015;-40
2022/12/13 10:09:49;;;;;;;;;;;-1.60;99.90;;;;;;5092488;28;19916;-41
2022/12/13 10:12:15;;;;;;;;;;;-1.50;99.90;;;;;;5099094;28;19959;-40
2022/12/13 10:14:50;;;;;;;;;;;-1.40;99.90;;;;;;5115175;28;19966;-40
2022/12/13 10:17:18;;;;;;;;;;;-1.30;99.90;;;;;;5116641;28;19911;-40
2022/12/13 10:19:45;;;;;;;;;;;-1.30;99.90;;;;;;5116042;28;19907;-41
2022/12/13 10:22:13;;;;;;;;;;;-1.20;99.90;;;;;;5116377;28;19912;-40
2022/12/13 10:24:53;;;;;;;;;;;-1.10;99.90;;;;;;5116442;28;19998;-41
2022/12/13 10:27:28;;;;;;;;;;;-1.00;99.90;;;;;;5097994;28;19912;-41
2022/12/13 10:29:55;;;;;;;;;;;-1.00;99.90;;;;;;5095972;28;20012;-39
2022/12/13 10:32:21;;;;;;;;;;;-0.80;99.90;;;;;;5095673;28;19920;-40
2022/12/13 10:34:46;;;;;;;;;;;-0.80;99.90;;;;;;5094901;28;20385;-41
2022/12/13 10:37:25;;;;;;;;;;;-0.70;99.90;;;;;;5095805;28;20390;-40
2022/12/13 10:39:50;;;;;;;;;;;-0.60;99.90;;;;;;5095094;28;19908;-40
2022/12/13 10:42:20;;;;;;;;;;;-0.50;99.90;;;;;;5095699;28;19908;-40
2022/12/13 10:44:46;;;;;;;;;;;-0.50;99.90;;;;;;5095671;28;20275;-40
2022/12/13 10:47:14;;;;;;;;;;;-0.40;99.90;;;;;;5094891;28;19923;-41
2022/12/13 10:49:46;;;;;;;;;;;-0.30;99.90;;;;;;5095665;28;19938;-41
2022/12/13 10:52:30;;;;;;;;;;;-0.30;99.90;;;;;;5095451;28;19916;-41
2022/12/13 10:54:57;;;;;;;;;;;-0.20;99.90;;;;;;5094722;28;19931;-41
2022/12/13 10:57:23;;;;;;;;;;;-0.20;99.90;;;;;;5113782;28;20003;-40
2022/12/13 10:59:49;;;;;;;;;;;-0.10;99.90;;;;;;5115615;28;20010;-42
2022/12/13 11:02:27;;;;;;;;;;;0.00;99.90;;;;;;5114953;28;20358;-41
2022/12/13 11:04:52;;;;;;;;;;;0.00;99.90;;;;;;5115454;28;19908;-41
2022/12/13 11:07:28;;;;;;;;;;;0.10;99.90;;;;;;5115627;28;19915;-43
2022/12/13 11:09:54;;;;;;;;;;;0.20;99.90;;;;;;5114812;28;19912;-40
2022/12/13 11:12:21;;;;;;;;;;;0.30;99.90;;;;;;5115160;28;20057;-41
2022/12/13 11:15:05;;;;;;;;;;;0.30;99.90;;;;;;5114627;28;19908;-42
2022/12/13 11:17:31;;;;;;;;;;;0.30;99.90;;;;;;5115465;28;19907;-40
2022/12/13 11:19:59;;;;;;;;;;;0.40;99.90;;;;;;5115301;28;19908;-41
2022/12/13 11:22:30;;;;;;;;;;;0.40;99.90;;;;;;5114391;28;19908;-40
2022/12/13 11:24:59;;;;;;;;;;;0.50;99.90;;;;;;5114523;28;19908;-40
2022/12/13 11:27:43;;;;;;;;;;;0.50;99.90;;;;;;5113473;28;19912;-41
2022/12/13 11:30:08;;;;;;;;;;;0.50;99.90;;;;;;5114315;28;19908;-41
2022/12/13 11:32:54;;;;;;;;;;;0.60;99.90;;;;;;5115127;28;19942;-42
2022/12/13 11:35:25;;;;;;;;;;;0.60;99.90;;;;;;5114059;28;19916;-40
2022/12/13 11:37:53;;;;;;;;;;;0.70;99.90;;;;;;5114294;28;19908;-40
2022/12/13 11:40:24;;;;;;;;;;;0.80;99.90;;;;;;5114961;28;20002;-39
2022/12/13 11:42:49;;;;;;;;;;;0.80;99.90;;;;;;5114931;28;19953;-40
2022/12/13 11:45:15;;;;;;;;;;;0.80;99.90;;;;;;5112243;28;19912;-40
2022/12/13 11:47:56;;;;;;;;;;;0.90;99.90;;;;;;5114477;28;19954;-41
2022/12/13 11:50:27;;;;;;;;;;;0.90;99.90;;;;;;5112381;28;19920;-41
2022/12/13 11:52:54;;;;;;;;;;;1.00;99.90;;;;;;5113949;28;19963;-40
2022/12/13 11:55:34;;;;;;;;;;;1.10;99.90;;;;;;5114763;28;19912;-41
2022/12/13 11:58:06;;;;;;;;;;;1.10;99.90;;;;;;5113847;28;19907;-43
2022/12/13 12:00:51;;;;;;;;;;;1.20;99.90;;;;;;5114621;28;19912;-39
2022/12/13 12:03:22;;;;;;;;;;;1.20;99.90;;;;;;5114574;28;19907;-40
2022/12/13 12:05:54;;;;;;;;;;;1.30;99.90;;;;;;5113811;28;19966;-39
2022/12/13 12:08:28;;;;;;;;;;;1.40;99.90;;;;;;5114374;28;19912;-40
2022/12/13 12:10:59;;;;;;;;;;;1.50;99.90;;;;;;5114408;28;19952;-41
2022/12/13 12:13:36;;;;;;;;;;;1.50;99.90;;;;;;5113434;28;19920;-42
2022/12/13 12:16:10;;;;;;;;;;;1.50;99.90;;;;;;5114231;28;20006;-41
2022/12/13 12:18:36;;;;;;;;;;;1.60;99.90;;;;;;5113438;28;20287;-41
2022/12/13 12:21:04;;;;;;;;;;;1.60;99.90;;;;;;5111989;28;20218;-41
2022/12/13 12:23:35;;;;;;;;;;;1.70;99.90;;;;;;5114241;28;19908;-40
2022/12/13 12:26:09;;;;;;;;;;;1.70;99.90;;;;;;5113399;28;19911;-40
2022/12/13 12:28:38;;;;;;;;;;;1.70;99.90;;;;;;5114005;28;20434;-41
2022/12/13 12:31:16;;;;;;;;;;;1.80;99.90;;;;;;5113916;28;19915;-40
2022/12/13 12:33:44;;;;;;;;;;;1.80;99.90;;;;;;5113007;28;19963;-42
2022/12/13 12:36:22;;;;;;;;;;;1.90;99.90;;;;;;5113910;28;20014;-41
2022/12/13 12:38:59;;;;;;;;;;;1.90;99.90;;;;;;5113979;28;19907;-39
2022/12/13 12:41:43;;;;;;;;;;;2.00;99.90;;;;;;5113118;28;19912;-42
2022/12/13 12:44:18;;;;;;;;;;;2.00;99.90;;;;;;5113597;28;20286;-41
2022/12/13 12:46:52;;;;;;;;;;;2.00;99.90;;;;;;5112974;28;19930;-40
2022/12/13 12:49:28;;;;;;;;;;;2.10;99.90;;;;;;5113949;28;19912;-41
2022/12/13 12:51:53;;;;;;;;;;;2.10;99.90;;;;;;5111537;28;19916;-40
2022/12/13 12:54:30;;;;;;;;;;;2.10;99.90;;;;;;5112349;28;19915;-40
2022/12/13 12:56:58;;;;;;;;;;;2.10;99.90;;;;;;5113619;28;19908;-40
2022/12/13 12:59:29;;;;;;;;;;;2.20;99.90;;;;;;5113520;28;20370;-39
2022/12/13 13:02:06;;;;;;;;;;;2.10;99.90;;;;;;5112786;28;19908;-40
2022/12/13 13:04:34;;;;;;;;;;;2.20;99.90;;;;;;5113241;28;19998;-40
2022/12/13 13:07:09;;;;;;;;;;;2.10;99.90;;;;;;5113340;28;19907;-39
2022/12/13 13:09:36;;;;;;;;;;;2.20;99.90;;;;;;5112723;28;19999;-41
2022/12/13 13:12:03;;;;;;;;;;;2.10;99.90;;;;;;5112805;28;19919;-39
2022/12/13 13:14:36;;;;;;;;;;;2.10;99.90;;;;;;5112437;28;19998;-41
2022/12/13 13:17:25;;;;;;;;;;;2.10;99.90;;;;;;5113177;28;19947;-40
2022/12/13 13:20:09;;;;;;;;;;;2.10;99.90;;;;;;5102321;28;19908;-39
2022/12/13 13:22:35;;;;;;;;;;;2.10;99.90;;;;;;5092898;28;19908;-39
2022/12/13 13:25:07;;;;;;;;;;;2.10;99.90;;;;;;5092659;28;20394;-40
2022/12/13 13:27:43;;;;;;;;;;;2.00;99.90;;;;;;5092717;28;19908;-39
2022/12/13 13:30:15;;;;;;;;;;;2.00;99.90;;;;;;5091826;28;20007;-39
2022/12/13 13:32:41;;;;;;;;;;;2.00;99.90;;;;;;5092688;28;19920;-41
2022/12/13 13:35:25;;;;;;;;;;;2.10;99.90;;;;;;5092707;28;19912;-42
2022/12/13 13:37:50;;;;;;;;;;;2.30;99.90;;;;;;5092261;28;20355;-41
2022/12/13 13:40:27;;;;;;;;;;;2.50;99.90;;;;;;5092712;28;19962;-40
2022/12/13 13:43:14;;;;;;;;;;;2.60;99.90;;;;;;5091820;28;19955;-39
2022/12/13 13:45:57;;;;;;;;;;;2.60;99.90;;;;;;5092510;28;19908;-40
2022/12/13 13:48:35;;;;;;;;;;;2.40;99.90;;;;;;5093034;28;19944;-39
2022/12/13 13:51:09;;;;;;;;;;;2.30;99.90;;;;;;5100240;28;19908;-40
2022/12/13 13:53:35;;;;;;;;;;;2.30;99.90;;;;;;5117094;28;19920;-39
2022/12/13 13:56:00;;;;;;;;;;;2.30;99.90;;;;;;5117000;28;19934;-42
2022/12/13 13:58:40;;;;;;;;;;;2.40;99.90;;;;;;5116133;28;19908;-40
2022/12/13 14:01:05;;;;;;;;;;;2.50;99.90;;;;;;5116939;28;19912;-39
2022/12/13 14:03:49;;;;;;;;;;;2.70;99.90;;;;;;5116881;28;19919;-41
2022/12/13 14:06:38;;;;;;;;;;;3.00;99.90;;;;;;5116575;28;20428;-40
2022/12/13 14:09:13;;;;;;;;;;;3.20;99.90;;;;;;5116769;28;19907;-40
2022/12/13 14:11:50;;;;;;;;;;;3.40;99.90;;;;;;5115871;28;19908;-41
2022/12/13 14:14:25;;;;;;;;;;;3.40;99.90;;;;;;5116959;28;20343;-44
2022/12/13 14:17:25;;;;;;;;;;;3.40;99.90;;;;;;5099016;28;19912;-41
2022/12/13 14:20:20;;;;;;;;;;;3.40;99.90;;;;;;5013070;28;19992;-40
2022/12/13 14:22:51;;;;;;;;;;;3.30;99.90;;;;;;5095100;28;19916;-40
2022/12/13 14:25:35;;;;;;;;;;;3.00;99.90;;;;;;5095334;28;19908;-40
2022/12/13 14:28:14;;;;;;;;;;;2.70;99.90;;;;;;5095582;28;20461;-40
2022/12/13 14:30:43;;;;;;;;;;;2.40;99.90;;;;;;5096307;28;19915;-41
2022/12/13 14:33:18;;;;;;;;;;;2.20;99.90;;;;;;5094964;28;19962;-40
2022/12/13 14:35:49;;;;;;;;;;;1.90;99.90;;;;;;5095784;28;19962;-41